Time;durP1;ratioP1;P1;durP2;ratioP2;P2;SDS_P1;SDS_P2;PMS_P1;PMS_P2;Temp;Humidity;BMP_temperature;BMP_pressure;BME280_temperature;BME280_humidity;BME280_pressure;Samples;Min_cycle;Max_cycle;Signal;HPM_P1;HPM_P2
2022/04/21 00:00:36;;;;;;;15.30;11.48;;;8.30;99.90;;;;;;2507039;23;20011;-71
2022/04/21 00:01:37;;;;;;;12.80;10.60;;;8.30;99.90;;;;;;2507418;23;20011;-71
2022/04/21 00:02:38;;;;;;;15.13;12.32;;;8.30;99.90;;;;;;2494774;23;20595;-71
2022/04/21 00:03:38;;;;;;;13.52;11.15;;;8.30;99.90;;;;;;2495001;23;20015;-71
2022/04/21 00:04:39;;;;;;;14.52;10.55;;;8.30;99.90;;;;;;2507742;23;20060;-71
2022/04/21 00:05:40;;;;;;;15.43;11.70;;;8.30;99.90;;;;;;2507613;23;20034;-71
2022/04/21 00:06:40;;;;;;;13.45;11.20;;;8.30;99.90;;;;;;2507861;23;20003;-71
2022/04/21 00:07:41;;;;;;;14.25;11.32;;;8.20;99.90;;;;;;2507944;23;20077;-71
2022/04/21 00:08:42;;;;;;;14.52;10.77;;;8.20;99.90;;;;;;2494758;23;20086;-71
2022/04/21 00:09:42;;;;;;;12.45;10.20;;;8.30;99.90;;;;;;2494832;23;20524;-70
2022/04/21 00:10:44;;;;;;;13.57;10.38;;;8.30;99.90;;;;;;2507362;23;20034;-70
2022/04/21 00:11:44;;;;;;;11.05;9.68;;;8.30;99.90;;;;;;2507568;23;20014;-71
2022/04/21 00:12:45;;;;;;;11.45;9.75;;;8.30;99.90;;;;;;2507682;23;20429;-71
2022/04/21 00:13:46;;;;;;;11.98;9.57;;;8.30;99.90;;;;;;2507172;23;20440;-70
2022/04/21 00:14:46;;;;;;;11.98;10.13;;;8.30;99.90;;;;;;2507859;23;20007;-71
2022/04/21 00:15:47;;;;;;;14.25;10.43;;;8.30;99.90;;;;;;2507697;23;20063;-70
2022/04/21 00:16:47;;;;;;;14.43;11.68;;;8.30;99.90;;;;;;2507550;23;20440;-71
2022/04/21 00:17:48;;;;;;;13.93;11.13;;;8.30;99.90;;;;;;2507689;23;20440;-71
2022/04/21 00:18:49;;;;;;;13.15;10.75;;;8.30;99.90;;;;;;2507760;23;20078;-71
2022/04/21 00:19:49;;;;;;;13.25;10.52;;;8.30;99.90;;;;;;2507352;23;20190;-70
2022/04/21 00:20:50;;;;;;;13.35;10.70;;;8.30;99.90;;;;;;2507359;23;20018;-70
2022/04/21 00:23:29;;;;;;;12.88;10.10;;;8.30;99.90;;;;;;2494694;23;20003;-71
2022/04/21 00:24:29;;;;;;;11.68;9.57;;;8.30;99.90;;;;;;2498573;23;20019;-71
2022/04/21 00:25:30;;;;;;;11.73;9.45;;;8.30;99.90;;;;;;2506901;23;20027;-70
2022/04/21 00:26:31;;;;;;;10.85;9.48;;;8.30;99.90;;;;;;2506660;23;20005;-70
2022/04/21 00:27:40;;;;;;;11.43;9.65;;;8.30;99.90;;;;;;2507185;23;20015;-70
2022/04/21 00:28:40;;;;;;;10.75;8.98;;;8.30;99.90;;;;;;2507400;23;20023;-70
2022/04/21 00:29:41;;;;;;;11.65;9.65;;;8.30;99.90;;;;;;2507158;23;20106;-70
2022/04/21 00:30:42;;;;;;;11.13;9.25;;;8.30;99.90;;;;;;2507079;23;20126;-70
2022/04/21 00:31:42;;;;;;;12.27;9.60;;;8.30;99.90;;;;;;2507187;23;20038;-70
2022/04/21 00:32:43;;;;;;;12.10;9.73;;;8.30;99.90;;;;;;2507102;23;20011;-71
2022/04/21 00:33:44;;;;;;;10.65;9.38;;;8.30;99.90;;;;;;2506296;23;20011;-72
2022/04/21 00:34:45;;;;;;;11.20;9.77;;;8.40;99.90;;;;;;2506633;23;20007;-71
2022/04/21 00:35:45;;;;;;;11.38;9.55;;;8.40;99.90;;;;;;2507387;23;20428;-69
2022/04/21 00:36:46;;;;;;;11.38;9.52;;;8.40;99.90;;;;;;2507575;23;20017;-71
2022/04/21 00:37:52;;;;;;;14.20;12.32;;;8.40;99.90;;;;;;2495134;23;20087;-70
2022/04/21 00:38:53;;;;;;;13.63;11.70;;;8.40;99.90;;;;;;2495951;23;20039;-70
2022/04/21 00:39:53;;;;;;;13.73;11.45;;;8.30;99.90;;;;;;2507737;23;20003;-70
2022/04/21 00:40:54;;;;;;;12.90;11.02;;;8.30;99.90;;;;;;2507607;23;20120;-72
2022/04/21 00:42:01;;;;;;;12.98;10.75;;;8.30;99.90;;;;;;2507447;23;20054;-69
2022/04/21 00:43:01;;;;;;;13.85;10.65;;;8.40;99.90;;;;;;2507385;23;20007;-71
2022/04/21 00:44:02;;;;;;;15.13;11.63;;;8.30;99.90;;;;;;2506889;23;20010;-70
2022/04/21 00:45:03;;;;;;;13.98;11.57;;;8.30;99.90;;;;;;2507696;23;20006;-70
2022/04/21 00:46:06;;;;;;;12.98;10.82;;;8.30;99.90;;;;;;2495424;23;20050;-71
2022/04/21 00:47:08;;;;;;;12.00;10.25;;;8.30;99.90;;;;;;2495727;23;20019;-71
2022/04/21 00:48:09;;;;;;;11.95;10.23;;;8.30;99.90;;;;;;2507225;23;20335;-71
2022/04/21 00:49:09;;;;;;;12.20;10.48;;;8.30;99.90;;;;;;2507825;23;20003;-70
2022/04/21 00:50:15;;;;;;;13.35;10.90;;;8.30;99.90;;;;;;2507846;23;20022;-70
2022/04/21 00:51:16;;;;;;;11.85;10.30;;;8.30;99.90;;;;;;2507891;23;20653;-72
2022/04/21 00:52:16;;;;;;;11.85;10.13;;;8.30;99.90;;;;;;2507909;23;19999;-69
2022/04/21 00:53:17;;;;;;;11.85;10.48;;;8.30;99.90;;;;;;2506816;23;19999;-70
2022/04/21 00:54:18;;;;;;;11.32;9.93;;;8.30;99.90;;;;;;2507139;23;20007;-69
2022/04/21 00:55:20;;;;;;;12.52;10.32;;;8.30;99.90;;;;;;2507903;23;20050;-71
2022/04/21 00:56:21;;;;;;;11.55;9.88;;;8.30;99.90;;;;;;2507828;23;20058;-71
2022/04/21 00:57:22;;;;;;;12.32;10.35;;;8.30;99.90;;;;;;2507868;23;20011;-71
2022/04/21 00:58:22;;;;;;;13.23;10.75;;;8.30;99.90;;;;;;2507883;23;20003;-71
2022/04/21 00:59:25;;;;;;;12.05;10.20;;;8.30;99.90;;;;;;2507797;23;20007;-71
2022/04/21 01:00:25;;;;;;;12.23;10.18;;;8.30;99.90;;;;;;2494878;23;20474;-71
2022/04/21 01:02:47;;;;;;;;;;;8.30;99.90;;;;;;2495738;23;20011;-71
2022/04/21 01:03:47;;;;;;;11.73;9.55;;;8.20;99.90;;;;;;2494993;23;19902;-71
2022/04/21 01:04:48;;;;;;;13.07;10.65;;;8.20;99.90;;;;;;2495275;23;20102;-71
2022/04/21 01:05:49;;;;;;;12.98;10.93;;;8.20;99.90;;;;;;2495477;23;20015;-70
2022/04/21 01:06:52;;;;;;;12.85;10.88;;;8.20;99.90;;;;;;2507130;23;20633;-70
2022/04/21 01:07:54;;;;;;;13.50;11.68;;;8.20;99.90;;;;;;2507182;23;20047;-71
2022/04/21 01:08:55;;;;;;;15.93;13.02;;;8.20;99.90;;;;;;2507681;23;20007;-72
2022/04/21 01:09:55;;;;;;;13.50;11.73;;;8.20;99.90;;;;;;2507984;23;20388;-70
2022/04/21 01:10:56;;;;;;;15.10;11.98;;;8.20;99.90;;;;;;2507862;23;20003;-71
2022/04/21 01:11:57;;;;;;;18.17;14.10;;;8.20;99.90;;;;;;2495339;23;20633;-72
2022/04/21 01:13:04;;;;;;;17.98;14.20;;;8.20;99.90;;;;;;2495574;23;20341;-70
2022/04/21 01:14:04;;;;;;;17.20;13.82;;;8.20;99.90;;;;;;2507128;23;20042;-70
2022/04/21 01:15:06;;;;;;;15.52;13.02;;;8.20;99.90;;;;;;2495241;23;20034;-72
2022/04/21 01:16:06;;;;;;;15.32;12.77;;;8.20;99.90;;;;;;2495485;23;20011;-70
2022/04/21 01:17:08;;;;;;;15.23;12.32;;;8.20;99.90;;;;;;2507944;23;20444;-70
2022/04/21 01:18:09;;;;;;;14.65;12.02;;;8.20;99.90;;;;;;2508238;23;20066;-70
2022/04/21 01:19:09;;;;;;;17.30;12.93;;;8.20;99.90;;;;;;2507851;23;20014;-70
2022/04/21 01:20:14;;;;;;;16.13;13.20;;;8.20;99.90;;;;;;2495158;23;20022;-70
2022/04/21 01:21:14;;;;;;;15.05;12.57;;;8.20;99.90;;;;;;2495904;23;20007;-70
2022/04/21 01:22:15;;;;;;;19.40;13.95;;;8.20;99.90;;;;;;2507576;23;20007;-69
2022/04/21 01:23:16;;;;;;;16.55;13.48;;;8.20;99.90;;;;;;2507631;23;20003;-71
2022/04/21 01:24:17;;;;;;;15.40;13.00;;;8.20;99.90;;;;;;2508044;23;19999;-70
2022/04/21 01:25:19;;;;;;;16.35;12.95;;;8.20;99.90;;;;;;2507092;23;20067;-71
2022/04/21 01:26:20;;;;;;;15.55;12.50;;;8.20;99.90;;;;;;2507324;23;20623;-70
2022/04/21 01:27:23;;;;;;;14.38;12.35;;;8.20;99.90;;;;;;2508250;23;20002;-70
2022/04/21 01:28:25;;;;;;;15.50;12.57;;;8.20;99.90;;;;;;2508155;23;20604;-70
2022/04/21 01:29:27;;;;;;;15.18;12.38;;;8.20;99.90;;;;;;2508437;23;20002;-72
2022/04/21 01:30:28;;;;;;;14.70;11.85;;;8.20;99.90;;;;;;2508659;23;20662;-70
2022/04/21 01:31:30;;;;;;;15.55;12.50;;;8.20;99.90;;;;;;2495646;23;20079;-70
2022/04/21 01:32:35;;;;;;;14.27;11.70;;;8.20;99.90;;;;;;2495726;23;20074;-70
2022/04/21 01:33:36;;;;;;;15.32;12.75;;;8.20;99.90;;;;;;2495176;23;20015;-72
2022/04/21 01:34:38;;;;;;;14.48;12.02;;;8.20;99.90;;;;;;2495384;23;20483;-71
2022/04/21 01:35:39;;;;;;;16.42;13.23;;;8.20;99.90;;;;;;2507891;23;20019;-72
2022/04/21 01:41:08;;;;;;;15.50;12.57;;;8.20;99.90;;;;;;2508515;23;20099;-71
2022/04/21 01:41:57;;;;;;;17.55;13.30;;;8.20;99.90;;;;;;2507845;23;20026;-72
2022/04/21 01:42:58;;;;;;;17.90;13.90;;;8.20;99.90;;;;;;2507895;23;20022;-72
2022/04/21 01:43:59;;;;;;;16.10;12.95;;;8.20;99.90;;;;;;2507407;23;20014;-71
2022/04/21 01:45:00;;;;;;;15.60;12.70;;;8.20;99.90;;;;;;2495103;23;20069;-72
2022/04/21 01:46:00;;;;;;;16.08;13.45;;;8.20;99.90;;;;;;2495359;23;20376;-71
2022/04/21 01:47:01;;;;;;;15.20;13.13;;;8.20;99.90;;;;;;2508062;23;20082;-71
2022/04/21 01:48:02;;;;;;;17.27;13.30;;;8.20;99.90;;;;;;2507776;23;20034;-71
2022/04/21 01:49:03;;;;;;;18.58;14.05;;;8.20;99.90;;;;;;2495301;23;20015;-70
2022/04/21 01:50:07;;;;;;;19.05;13.80;;;8.20;99.90;;;;;;2495250;23;20026;-72
2022/04/21 01:51:08;;;;;;;18.80;14.73;;;8.20;99.90;;;;;;2507635;23;20019;-70
2022/04/21 01:52:08;;;;;;;17.48;14.30;;;8.20;99.90;;;;;;2507574;23;20007;-71
2022/04/21 01:53:09;;;;;;;19.17;14.07;;;8.20;99.90;;;;;;2507342;23;20081;-71
2022/04/21 01:54:10;;;;;;;17.38;13.05;;;8.20;99.90;;;;;;2507412;23;20039;-72
2022/04/21 01:55:11;;;;;;;16.70;12.77;;;8.20;99.90;;;;;;2507707;23;20678;-72
2022/04/21 01:56:11;;;;;;;16.77;12.63;;;8.30;99.90;;;;;;2494919;23;20360;-69
2022/04/21 01:57:12;;;;;;;16.02;12.88;;;8.30;99.90;;;;;;2495272;23;20023;-70
2022/04/21 01:58:13;;;;;;;14.60;11.93;;;8.30;99.90;;;;;;2506951;23;19999;-72
2022/04/21 01:59:13;;;;;;;13.93;11.98;;;8.30;99.90;;;;;;2507714;23;20002;-72
2022/04/21 02:00:14;;;;;;;14.23;12.20;;;8.30;99.90;;;;;;2508009;23;20006;-72
2022/04/21 02:01:15;;;;;;;14.35;12.27;;;8.30;99.90;;;;;;2507419;23;20015;-72
2022/04/21 02:02:15;;;;;;;16.38;12.73;;;8.30;99.90;;;;;;2507795;23;20050;-72
2022/04/21 02:03:16;;;;;;;15.30;13.02;;;8.30;99.90;;;;;;2507462;23;20013;-72
2022/04/21 02:04:17;;;;;;;17.52;13.95;;;8.30;99.90;;;;;;2507810;23;19998;-72
2022/04/21 02:05:18;;;;;;;19.60;13.98;;;8.30;99.90;;;;;;2507792;23;20009;-72
2022/04/21 02:06:19;;;;;;;16.85;14.38;;;8.30;99.90;;;;;;2507754;23;20657;-72
2022/04/21 02:07:19;;;;;;;14.93;13.10;;;8.30;99.90;;;;;;2508023;23;20066;-71
2022/04/21 02:08:20;;;;;;;16.98;13.68;;;8.20;99.90;;;;;;2507808;23;20055;-70
2022/04/21 02:09:21;;;;;;;18.00;14.48;;;8.20;99.90;;;;;;2507155;23;20058;-70
2022/04/21 02:10:22;;;;;;;16.27;13.65;;;8.20;99.90;;;;;;2507390;23;20361;-71
2022/04/21 02:11:23;;;;;;;17.90;13.68;;;8.20;99.90;;;;;;2494964;23;20011;-70
2022/04/21 02:12:24;;;;;;;16.23;12.93;;;8.20;99.90;;;;;;2495174;23;20078;-69
2022/04/21 02:13:25;;;;;;;17.08;13.30;;;8.20;99.90;;;;;;2507473;23;20009;-71
2022/04/21 02:14:25;;;;;;;15.75;13.13;;;8.20;99.90;;;;;;2507785;23;19998;-71
2022/04/21 02:15:26;;;;;;;16.10;12.88;;;8.20;99.90;;;;;;2495272;23;20000;-73
2022/04/21 02:16:27;;;;;;;14.55;12.65;;;8.20;99.90;;;;;;2495259;23;20130;-72
2022/04/21 02:17:28;;;;;;;19.63;16.13;;;8.20;99.90;;;;;;2507840;23;20005;-72
2022/04/21 02:18:29;;;;;;;20.70;15.77;;;8.20;99.90;;;;;;2507972;23;20002;-72
2022/04/21 02:19:30;;;;;;;18.20;13.90;;;8.20;99.90;;;;;;2495367;23;20023;-71
2022/04/21 02:20:30;;;;;;;15.93;13.63;;;8.20;99.90;;;;;;2495198;23;20488;-72
2022/04/21 02:21:31;;;;;;;17.48;13.90;;;8.20;99.90;;;;;;2494975;23;20071;-72
2022/04/21 02:22:32;;;;;;;15.98;13.70;;;8.20;99.90;;;;;;2495178;23;20007;-69
2022/04/21 02:23:33;;;;;;;16.95;14.25;;;8.20;99.90;;;;;;2495558;23;20056;-70
2022/04/21 02:24:33;;;;;;;15.48;13.68;;;8.20;99.90;;;;;;2496002;23;20010;-73
2022/04/21 02:25:34;;;;;;;17.00;13.50;;;8.20;99.90;;;;;;2508670;23;20038;-70
2022/04/21 02:26:35;;;;;;;16.85;13.60;;;8.20;99.90;;;;;;2508283;23;20444;-70
2022/04/21 02:27:37;;;;;;;18.05;13.93;;;8.20;99.90;;;;;;2508586;23;20057;-70
2022/04/21 02:28:38;;;;;;;16.92;14.25;;;8.20;99.90;;;;;;2508736;23;20007;-70
2022/04/21 02:29:39;;;;;;;17.85;14.85;;;8.20;99.90;;;;;;2508389;23;20011;-71
2022/04/21 02:30:39;;;;;;;19.35;15.65;;;8.20;99.90;;;;;;2508267;23;20057;-70
2022/04/21 02:31:40;;;;;;;20.85;15.27;;;8.10;99.90;;;;;;2495844;23;20098;-70
2022/04/21 02:32:41;;;;;;;16.77;14.23;;;8.10;99.90;;;;;;2495968;23;20786;-71
2022/04/21 02:33:41;;;;;;;16.60;13.77;;;8.10;99.90;;;;;;2508757;23;20045;-72
2022/04/21 02:34:42;;;;;;;16.23;14.02;;;8.10;99.90;;;;;;2508560;23;20010;-70
2022/04/21 02:35:43;;;;;;;17.23;13.90;;;8.10;99.90;;;;;;2507339;23;20023;-70
2022/04/21 02:36:43;;;;;;;16.83;14.40;;;8.10;99.90;;;;;;2507582;23;20702;-71
2022/04/21 02:37:46;;;;;;;16.63;13.73;;;8.10;99.90;;;;;;2508166;23;20022;-72
2022/04/21 02:38:46;;;;;;;17.95;14.48;;;8.10;99.90;;;;;;2507421;23;20511;-72
2022/04/21 02:39:48;;;;;;;18.73;14.18;;;8.10;99.90;;;;;;2506876;23;20014;-72
2022/04/21 02:40:49;;;;;;;16.90;13.98;;;8.10;99.90;;;;;;2507879;23;20031;-72
2022/04/21 02:41:50;;;;;;;16.73;13.82;;;8.20;99.90;;;;;;2507391;23;20039;-70
2022/04/21 02:42:50;;;;;;;16.35;13.45;;;8.10;99.90;;;;;;2496683;23;20432;-72
2022/04/21 02:43:51;;;;;;;18.42;14.02;;;8.10;99.90;;;;;;2496264;23;20014;-69
2022/04/21 02:44:52;;;;;;;16.70;13.27;;;8.10;99.90;;;;;;2495784;23;20010;-72
2022/04/21 02:45:52;;;;;;;16.00;13.02;;;8.20;99.90;;;;;;2495843;23;20059;-72
2022/04/21 02:46:53;;;;;;;22.05;15.75;;;8.20;99.90;;;;;;2495652;23;20007;-72
2022/04/21 02:47:53;;;;;;;21.13;15.85;;;8.20;99.90;;;;;;2495505;23;20003;-71
2022/04/21 02:48:56;;;;;;;19.30;15.00;;;8.10;99.90;;;;;;2495777;23;20483;-72
2022/04/21 02:49:57;;;;;;;20.35;14.73;;;8.10;99.90;;;;;;2495542;23;20004;-71
2022/04/21 02:50:58;;;;;;;23.08;17.67;;;8.10;99.90;;;;;;2494805;23;20219;-72
2022/04/21 02:51:59;;;;;;;24.40;16.65;;;8.10;99.90;;;;;;2494874;23;20340;-72
2022/04/21 02:52:59;;;;;;;23.63;15.95;;;8.10;99.90;;;;;;2495520;23;20067;-71
2022/04/21 02:57:59;;;;;;;21.42;15.43;;;8.10;99.90;;;;;;2495621;23;20015;-72
2022/04/21 02:59:00;;;;;;;21.50;15.25;;;8.00;99.90;;;;;;2506818;23;20015;-71
2022/04/21 03:00:04;;;;;;;23.52;15.60;;;8.00;99.90;;;;;;2506962;23;20017;-71
2022/04/21 03:01:04;;;;;;;22.33;15.25;;;8.00;99.90;;;;;;2496069;23;20011;-72
2022/04/21 03:02:05;;;;;;;20.98;14.98;;;8.00;99.90;;;;;;2506424;23;20011;-71
2022/04/21 03:03:06;;;;;;;24.55;15.52;;;8.00;99.90;;;;;;2506483;23;20007;-70
2022/04/21 03:04:06;;;;;;;24.48;15.65;;;8.00;99.90;;;;;;2495740;23;20101;-71
2022/04/21 03:05:07;;;;;;;23.35;15.90;;;8.00;99.90;;;;;;2495646;23;20588;-71
2022/04/21 03:06:10;;;;;;;21.55;15.95;;;8.00;99.90;;;;;;2495621;23;20003;-71
2022/04/21 03:07:11;;;;;;;26.27;16.35;;;8.00;99.90;;;;;;2495468;23;20032;-71
2022/04/21 03:08:12;;;;;;;24.25;16.25;;;8.00;99.90;;;;;;2495638;23;20034;-72
2022/04/21 03:09:12;;;;;;;22.63;15.93;;;8.00;99.90;;;;;;2495634;23;20395;-72
2022/04/21 03:10:13;;;;;;;24.67;15.77;;;8.00;99.90;;;;;;2495410;23;20531;-71
2022/04/21 03:11:14;;;;;;;22.27;15.77;;;8.00;99.90;;;;;;2495622;23;20452;-72
2022/04/21 03:12:15;;;;;;;22.60;16.05;;;8.00;99.90;;;;;;2495654;23;20007;-71
2022/04/21 03:13:15;;;;;;;24.00;16.45;;;8.00;99.90;;;;;;2495282;23;20070;-71
2022/04/21 03:14:18;;;;;;;23.77;15.70;;;8.00;99.90;;;;;;2495661;23;20029;-71
2022/04/21 03:15:18;;;;;;;26.33;17.10;;;8.00;99.90;;;;;;2495490;23;20015;-72
2022/04/21 03:16:19;;;;;;;29.75;17.67;;;8.00;99.90;;;;;;2495650;23;20392;-72
2022/04/21 03:17:20;;;;;;;31.35;18.42;;;8.00;99.90;;;;;;2495653;23;20694;-72
2022/04/21 03:18:20;;;;;;;27.27;17.52;;;8.00;99.90;;;;;;2496470;23;20098;-72
2022/04/21 03:19:21;;;;;;;29.73;18.35;;;8.00;99.90;;;;;;2495996;23;20421;-69
2022/04/21 03:24:19;;;;;;;41.30;20.95;;;8.00;99.90;;;;;;2495510;23;20657;-71
2022/04/21 03:25:21;;;;;;;35.67;20.23;;;8.00;99.90;;;;;;2495134;23;20045;-72
2022/04/21 03:26:21;;;;;;;39.55;20.92;;;8.00;99.90;;;;;;2494657;23;20004;-72
2022/04/21 03:27:22;;;;;;;37.80;20.33;;;8.00;99.90;;;;;;2494662;23;20023;-71
2022/04/21 03:28:22;;;;;;;38.88;20.15;;;8.00;99.90;;;;;;2506484;23;20138;-71
2022/04/21 03:29:23;;;;;;;41.58;21.48;;;8.00;99.90;;;;;;2506425;23;20003;-72
2022/04/21 03:30:24;;;;;;;41.85;22.10;;;8.00;99.90;;;;;;2495556;23;20018;-70
2022/04/21 03:31:25;;;;;;;41.28;21.15;;;8.00;99.90;;;;;;2494800;23;20444;-71
2022/04/21 03:32:26;;;;;;;40.53;21.48;;;7.90;99.90;;;;;;2494922;23;20010;-71
2022/04/21 03:33:28;;;;;;;36.80;20.35;;;8.00;99.90;;;;;;2494712;23;20523;-72
2022/04/21 03:34:28;;;;;;;38.30;20.58;;;7.90;99.90;;;;;;2494857;23;20007;-71
2022/04/21 03:35:29;;;;;;;41.42;20.90;;;7.90;99.90;;;;;;2503548;23;20034;-71
2022/04/21 03:36:30;;;;;;;35.42;20.42;;;7.90;99.90;;;;;;2507656;23;20062;-71
2022/04/21 03:37:31;;;;;;;36.58;20.23;;;7.90;99.90;;;;;;2507790;23;20340;-70
2022/04/21 03:38:32;;;;;;;40.72;20.73;;;7.90;99.90;;;;;;2507746;23;20041;-70
2022/04/21 03:39:35;;;;;;;42.45;21.00;;;8.00;99.90;;;;;;2507628;23;20006;-72
2022/04/21 03:40:35;;;;;;;45.63;21.98;;;8.00;99.90;;;;;;2507608;23;20003;-72
2022/04/21 03:41:36;;;;;;;39.42;21.70;;;7.90;99.90;;;;;;2507799;23;20007;-72
2022/04/21 03:42:38;;;;;;;38.40;21.33;;;7.90;99.90;;;;;;2507702;23;20015;-72
2022/04/21 03:43:39;;;;;;;38.88;21.40;;;7.90;99.90;;;;;;2506928;23;20030;-72
2022/04/21 03:44:40;;;;;;;37.20;20.30;;;7.90;99.90;;;;;;2494591;23;20373;-72
2022/04/21 03:45:41;;;;;;;39.05;20.23;;;7.90;99.90;;;;;;2494721;23;20007;-72
2022/04/21 03:46:41;;;;;;;37.35;19.73;;;7.90;99.90;;;;;;2507466;23;20506;-72
2022/04/21 03:47:42;;;;;;;36.40;19.65;;;7.90;99.90;;;;;;2494936;23;20011;-72
2022/04/21 03:48:42;;;;;;;35.75;19.42;;;7.90;99.90;;;;;;2494697;23;20094;-73
2022/04/21 03:49:43;;;;;;;34.33;19.73;;;7.90;99.90;;;;;;2506358;23;20006;-71
2022/04/21 03:50:44;;;;;;;36.97;19.52;;;7.90;99.90;;;;;;2506443;23;20010;-71
2022/04/21 03:51:44;;;;;;;35.65;19.77;;;7.90;99.90;;;;;;2507216;23;20065;-71
2022/04/21 03:52:45;;;;;;;33.40;18.75;;;7.90;99.90;;;;;;2507260;23;20058;-72
2022/04/21 03:53:46;;;;;;;32.20;18.67;;;7.90;99.90;;;;;;2506631;23;20022;-71
2022/04/21 03:54:46;;;;;;;31.55;19.30;;;7.90;99.90;;;;;;2507073;23;20011;-70
2022/04/21 03:55:47;;;;;;;30.38;18.95;;;7.90;99.90;;;;;;2507329;23;20020;-71
2022/04/21 03:56:48;;;;;;;34.67;20.00;;;7.90;99.90;;;;;;2494596;23;20011;-72
2022/04/21 03:57:48;;;;;;;34.17;19.90;;;7.90;99.90;;;;;;2483004;23;20016;-70
2022/04/21 03:58:49;;;;;;;29.13;18.95;;;7.90;99.90;;;;;;2494805;23;20043;-72
2022/04/21 03:59:50;;;;;;;32.80;19.42;;;7.90;99.90;;;;;;2507592;23;20006;-72
2022/04/21 04:00:51;;;;;;;34.47;19.38;;;7.90;99.90;;;;;;2495068;23;20059;-72
2022/04/21 04:01:51;;;;;;;32.67;19.10;;;7.90;99.90;;;;;;2495274;23;20026;-72
2022/04/21 04:02:53;;;;;;;34.55;19.52;;;7.90;99.90;;;;;;2507695;23;20058;-71
2022/04/21 04:03:54;;;;;;;30.92;19.67;;;7.90;99.90;;;;;;2507168;23;20030;-70
2022/04/21 04:04:54;;;;;;;39.53;22.05;;;7.90;99.90;;;;;;2508104;23;20753;-70
2022/04/21 04:05:55;;;;;;;34.22;20.60;;;7.90;99.90;;;;;;2508052;23;20458;-71
2022/04/21 04:10:54;;;;;;;36.72;22.45;;;7.90;99.90;;;;;;2507368;23;20335;-72
2022/04/21 04:11:55;;;;;;;45.88;24.58;;;7.90;99.90;;;;;;2507386;23;20015;-71
2022/04/21 04:12:56;;;;;;;41.20;22.20;;;7.90;99.90;;;;;;2507270;23;20584;-71
2022/04/21 04:13:56;;;;;;;47.78;24.77;;;7.90;99.90;;;;;;2507056;23;20011;-71
2022/04/21 04:14:57;;;;;;;45.35;24.52;;;7.90;99.90;;;;;;2507492;23;20011;-72
2022/04/21 04:16:00;;;;;;;39.65;24.17;;;7.90;99.90;;;;;;2507333;23;20712;-71
2022/04/21 04:17:00;;;;;;;44.28;23.92;;;7.90;99.90;;;;;;2494581;23;20548;-71
2022/04/21 04:18:01;;;;;;;39.95;22.98;;;7.80;99.90;;;;;;2494658;23;20016;-70
2022/04/21 04:19:07;;;;;;;43.03;23.60;;;7.90;99.90;;;;;;2507285;23;20010;-70
2022/04/21 04:20:09;;;;;;;39.35;22.05;;;7.90;99.90;;;;;;2495396;23;20007;-70
2022/04/21 04:21:12;;;;;;;45.85;24.73;;;7.90;99.90;;;;;;2483746;23;20019;-70
2022/04/21 04:22:14;;;;;;;38.92;23.25;;;7.90;99.90;;;;;;2495837;23;20063;-70
2022/04/21 04:23:19;;;;;;;40.22;22.50;;;7.90;99.90;;;;;;2507833;23;20003;-70
2022/04/21 04:24:20;;;;;;;41.85;23.38;;;7.90;99.90;;;;;;2508317;23;20010;-70
2022/04/21 04:25:20;;;;;;;39.17;22.38;;;7.90;99.90;;;;;;2495931;23;20420;-71
2022/04/21 04:26:21;;;;;;;40.13;22.10;;;7.90;99.90;;;;;;2495596;23;20045;-71
2022/04/21 04:27:22;;;;;;;35.28;21.75;;;7.90;99.90;;;;;;2508412;23;20030;-71
2022/04/21 04:28:23;;;;;;;36.90;21.17;;;7.90;99.90;;;;;;2508206;23;19999;-71
2022/04/21 04:29:24;;;;;;;39.55;22.70;;;7.90;99.90;;;;;;2508258;23;20007;-70
2022/04/21 04:30:25;;;;;;;41.13;23.63;;;7.90;99.90;;;;;;2508382;23;20313;-71
2022/04/21 04:31:25;;;;;;;37.78;22.00;;;7.90;99.90;;;;;;2508249;23;20005;-71
2022/04/21 04:32:26;;;;;;;37.53;21.45;;;8.00;99.90;;;;;;2508323;23;20003;-71
2022/04/21 04:33:26;;;;;;;38.90;21.98;;;8.00;99.90;;;;;;2508336;23;20328;-71
2022/04/21 04:34:27;;;;;;;39.55;21.23;;;8.00;99.90;;;;;;2495626;23;20373;-71
2022/04/21 04:35:29;;;;;;;36.63;20.35;;;8.00;99.90;;;;;;2495133;23;20118;-71
2022/04/21 04:36:29;;;;;;;36.33;20.42;;;8.00;99.90;;;;;;2508037;23;20440;-71
2022/04/21 04:37:30;;;;;;;33.95;19.90;;;8.00;99.90;;;;;;2507576;23;20078;-71
2022/04/21 04:38:31;;;;;;;31.90;20.10;;;8.00;99.90;;;;;;2507604;23;20491;-71
2022/04/21 04:39:31;;;;;;;35.83;19.58;;;8.00;99.90;;;;;;2508323;23;20010;-73
2022/04/21 04:40:32;;;;;;;32.70;20.13;;;8.00;99.90;;;;;;2495714;23;20060;-71
2022/04/21 04:42:55;;;;;;;34.60;19.95;;;8.00;99.90;;;;;;2508689;23;20082;-71
2022/04/21 04:43:56;;;;;;;31.13;18.92;;;8.10;99.90;;;;;;2507801;23;20466;-70
2022/04/21 04:47:35;;;;;;;33.08;18.50;;;8.10;99.90;;;;;;2508530;23;20723;-72
2022/04/21 04:48:35;;;;;;;28.42;17.95;;;8.10;99.90;;;;;;2496859;23;20007;-72
2022/04/21 04:49:36;;;;;;;30.92;19.90;;;8.10;99.90;;;;;;2496631;23;20468;-71
2022/04/21 04:50:36;;;;;;;30.60;18.73;;;8.00;99.90;;;;;;2508763;23;20026;-72
2022/04/21 04:51:41;;;;;;;33.47;19.17;;;8.10;99.90;;;;;;2508824;23;20144;-71
2022/04/21 04:52:42;;;;;;;37.40;20.38;;;8.10;99.90;;;;;;2508210;23;20015;-71
2022/04/21 04:53:42;;;;;;;45.40;22.67;;;8.10;99.90;;;;;;2507983;23;20057;-71
2022/04/21 04:54:43;;;;;;;50.72;24.95;;;8.10;99.90;;;;;;2508665;23;20025;-72
2022/04/21 04:55:44;;;;;;;47.17;23.38;;;8.00;99.90;;;;;;2509302;23;20050;-71
2022/04/21 04:56:46;;;;;;;45.92;23.38;;;8.00;99.90;;;;;;2509336;23;20007;-71
2022/04/21 04:57:49;;;;;;;46.20;22.30;;;8.00;99.90;;;;;;2509677;23;20090;-71
2022/04/21 04:58:51;;;;;;;46.15;22.38;;;8.00;99.90;;;;;;2508319;23;20445;-71
2022/04/21 04:59:52;;;;;;;44.40;21.30;;;8.00;99.90;;;;;;2508474;23;20014;-71
2022/04/21 05:00:53;;;;;;;42.60;22.00;;;8.00;99.90;;;;;;2508009;23;20074;-71
2022/04/21 05:01:53;;;;;;;41.22;21.70;;;8.00;99.90;;;;;;2507280;23;20003;-71
2022/04/21 05:02:54;;;;;;;44.33;21.05;;;8.00;99.90;;;;;;2507463;23;20007;-71
2022/04/21 05:04:08;;;;;;;39.97;20.98;;;8.00;99.90;;;;;;2507437;23;20710;-71
2022/04/21 05:05:08;;;;;;;46.17;21.25;;;8.00;99.90;;;;;;2507377;23;20135;-72
2022/04/21 05:06:09;;;;;;;48.97;23.58;;;8.00;99.90;;;;;;2507399;23;20606;-72
2022/04/21 05:07:10;;;;;;;41.25;21.75;;;8.00;99.90;;;;;;2507210;23;20066;-73
2022/04/21 05:08:10;;;;;;;39.70;21.48;;;8.00;99.90;;;;;;2507558;23;20002;-70
2022/04/21 05:09:13;;;;;;;40.95;20.85;;;8.00;99.90;;;;;;2507353;23;20397;-70
2022/04/21 05:10:18;;;;;;;40.55;20.83;;;8.00;99.90;;;;;;2507242;23;19999;-71
2022/04/21 05:11:19;;;;;;;45.08;22.25;;;8.00;99.90;;;;;;2494864;23;20502;-71
2022/04/21 05:12:21;;;;;;;41.33;21.25;;;8.00;99.90;;;;;;2494707;23;20006;-71
2022/04/21 05:13:23;;;;;;;42.40;20.40;;;8.00;99.90;;;;;;2506147;23;20037;-71
2022/04/21 05:14:25;;;;;;;45.95;22.40;;;8.10;99.90;;;;;;2506710;23;20011;-71
2022/04/21 05:15:26;;;;;;;43.20;22.05;;;8.10;99.90;;;;;;2507861;23;20007;-71
2022/04/21 05:16:27;;;;;;;42.67;21.05;;;8.00;99.90;;;;;;2495253;23;20519;-71
2022/04/21 05:17:29;;;;;;;40.70;21.15;;;8.10;99.90;;;;;;2495314;23;20007;-71
2022/04/21 05:18:30;;;;;;;43.60;22.33;;;8.10;99.90;;;;;;2508803;23;19995;-71
2022/04/21 05:19:31;;;;;;;45.63;21.95;;;8.10;99.90;;;;;;2509224;23;20150;-72
2022/04/21 05:20:32;;;;;;;44.58;22.83;;;8.10;99.90;;;;;;2508417;23;20011;-72
2022/04/21 05:21:34;;;;;;;43.03;21.73;;;8.10;99.90;;;;;;2507245;23;20121;-70
2022/04/21 05:22:39;;;;;;;39.28;21.05;;;8.10;99.90;;;;;;2494657;23;20019;-71
2022/04/21 05:23:44;;;;;;;38.40;20.73;;;8.10;99.90;;;;;;2495035;23;20078;-71
2022/04/21 05:24:46;;;;;;;47.25;23.10;;;8.10;99.90;;;;;;2506294;23;20086;-71
2022/04/21 05:25:47;;;;;;;44.08;22.60;;;8.10;99.90;;;;;;2507940;23;19999;-71
2022/04/21 05:26:48;;;;;;;44.08;23.45;;;8.10;99.90;;;;;;2507934;23;20062;-71
2022/04/21 05:27:48;;;;;;;46.03;23.33;;;8.10;99.90;;;;;;2507539;23;20014;-71
2022/04/21 05:28:49;;;;;;;43.95;21.77;;;8.10;99.90;;;;;;2507540;23;20007;-71
2022/04/21 05:31:10;;;;;;;46.45;23.67;;;8.10;99.90;;;;;;2505562;23;20466;-72
2022/04/21 05:32:11;;;;;;;43.25;22.60;;;8.10;99.90;;;;;;2507627;23;20017;-71
2022/04/21 05:33:15;;;;;;;45.33;23.40;;;8.10;99.90;;;;;;2495294;23;20013;-71
2022/04/21 05:34:16;;;;;;;42.97;22.63;;;8.10;99.90;;;;;;2494409;23;20010;-70
2022/04/21 05:35:17;;;;;;;47.47;23.23;;;8.10;99.90;;;;;;2502982;23;95082;-71
2022/04/21 05:36:19;;;;;;;44.40;21.70;;;8.10;99.90;;;;;;2508793;23;20014;-71
2022/04/21 05:37:19;;;;;;;35.85;20.00;;;8.10;99.90;;;;;;2501792;23;20003;-71
2022/04/21 05:38:21;;;;;;;38.58;21.35;;;8.10;99.90;;;;;;2507326;23;20043;-72
2022/04/21 05:39:22;;;;;;;38.90;21.80;;;8.20;99.90;;;;;;2507731;23;20011;-71